IK1AMC-3 Weather Reports


Display with metric or nautical units.
time (UTC)temp
F
wind
direction
speed
MPH
gust
MPH
rain 1hr
in
rain 24hr
in
rain mn
in
humidity
%
barometer
mb
20260506001658 60 0.0 0.0 0.00 0.00 0.00 83 1010.1
20260505235657 60 0.0 0.0 0.00 0.00 0.00 81 1009.9
20260505233655 60 0.0 0.0 0.00 0.00 0.00 79 1010.1
20260505231654 60 0.0 0.0 0.00 0.00 0.00 78 1010.3
20260505225653 60 0.0 0.0 0.00 0.00 0.00 78 1010.3
20260505223651 60 0.0 0.0 0.00 0.00 0.00 77 1010.9
20260505221650 61 0.0 0.0 0.00 0.00 0.00 76 1011.2
20260505215648 60 0.0 0.0 0.00 0.00 0.00 79 1011.4
20260505213647 60 0.0 0.0 0.00 0.00 0.00 79 1011.4
20260505211645 61 0.0 0.0 0.00 0.00 0.00 77 1011.5
20260505205644 61 0.0 0.0 0.00 0.00 0.00 77 1011.7
20260505203643 61 0.0 0.0 0.00 0.00 0.00 77 1011.8
20260505201641 61 0.0 0.0 0.00 0.00 0.00 75 1011.8
20260505195640 61 0.0 0.0 0.00 0.00 0.00 76 1011.8
20260505193639 61 0.0 0.0 0.00 0.00 0.00 75 1011.6
20260505191637 61 0.0 0.0 0.00 0.00 0.00 75 1011.5
20260505185636 62 0.0 0.0 0.00 0.00 0.00 74 1011.3
20260505183635 63 0.0 0.0 0.00 0.00 0.00 70 1011.1
20260505181633 64 0.0 0.0 0.00 0.00 0.00 68 1011.1
20260505175632 64 0.0 0.0 0.00 0.00 0.00 68 1011.2
20260505173631 64 0.0 0.0 0.00 0.00 0.00 67 1011.2
20260505171630 65 0.0 0.0 0.00 0.00 0.00 66 1011.1
20260505165628 65 0.0 0.0 0.00 0.00 0.00 66 1011.1
20260505163627 65 0.0 0.0 0.00 0.00 0.00 64 1011.2
20260505161626 65 0.0 0.0 0.00 0.00 0.00 64 1011.3
20260505151622 66 0.0 0.0 0.00 0.00 0.00 59 1011.2
20260505123611 66 0.0 0.0 0.00 0.00 0.00 56 1011.7
20260505121610 66 0.0 0.0 0.00 0.00 0.00 57 1011.7
20260505115608 65 0.0 0.0 0.00 0.00 0.00 58 1011.8
20260505113607 65 0.0 0.0 0.00 0.00 0.00 60 1011.7
20260505111606 65 0.0 0.0 0.00 0.00 0.00 60 1011.9
20260505101602 63 0.0 0.0 0.00 0.00 0.00 61 1012.0
20260505095601 63 0.0 0.0 0.00 0.00 0.00 61 1012.0
20260505093559 65 0.0 0.0 0.00 0.00 0.00 58 1011.9
20260505091558 63 0.0 0.0 0.00 0.00 0.00 61 1012.0
20260505085557 62 0.0 0.0 0.00 0.00 0.00 64 1012.0
20260505084028 60 0.0 0.0 0.00 0.00 0.00 70 1011.9
20260505082026 60 0.0 0.0 0.00 0.00 0.00 67 1012.0
20260505080025 60 0.0 0.0 0.00 0.00 0.00 68 1011.7
20260505074024 60 0.0 0.0 0.00 0.00 0.00 67 1011.6
20260505072022 60 0.0 0.0 0.00 0.00 0.00 68 1011.7
20260505070021 59 0.0 0.0 0.00 0.00 0.00 70 1011.4
20260505064020 59 0.0 0.0 0.00 0.00 0.00 71 1011.3
20260505062019 58 0.0 0.0 0.00 0.00 0.00 72 1011.2
20260505060017 58 0.0 0.0 0.00 0.00 0.00 73 1011.0
20260505054016 57 0.0 0.0 0.00 0.00 0.00 74 1010.8
20260505052015 57 0.0 0.0 0.00 0.00 0.00 76 1010.7
20260505040009 57 0.0 0.0 0.00 0.00 0.00 82 1011.6
20260505034008 57 0.0 0.0 0.00 0.00 0.00 82 1012.0
20260505032007 57 0.0 0.0 0.00 0.00 0.00 83 1012.2
20260505030006 57 0.0 0.0 0.00 0.00 0.00 83 1012.2
20260505024004 58 0.0 0.0 0.00 0.00 0.00 82 1012.4
20260505022003 58 0.0 0.0 0.00 0.00 0.00 82 1012.3
20260505020002 58 0.0 0.0 0.00 0.00 0.00 81 1012.6
20260505014001 59 0.0 0.0 0.00 0.00 0.00 82 1012.8
20260505012000 59 0.0 0.0 0.00 0.00 0.00 81 1013.1
20260505005958 59 0.0 0.0 0.00 0.00 0.00 82 1013.6
20260505003957 59 0.0 0.0 0.00 0.00 0.00 82 1013.9
20260505001955 62 0.0 0.0 0.00 0.00 0.00 80 1013.9